Main page
METAR-TAF:

METAR-TAF

Airports :

Dushanbe International Airport

Dushanbe, Tajikistan

latitude: 38-33N, longitude: 068-47E, elevation: 803 m

Current weather observation

The report was made 26 minutes ago, at 19:00 UTC
Wind 4 kt from variable directions
Temperature 4°C
Humidity 70%
Pressure 1027 hPa
Visibility 10 km or more

METAR: UTDD 171900Z VRB02MPS 9999 NSC 04/M01 Q1027 R09/D NOSIG RMK QFE701/0935

Time: 00:26 (19:26 UTC)

Forecast

The report was made 1 hour and 26 minutes ago, at 18:00 UTC
Forecast valid from 17 at 19 UTC to 18 at 07 UTC
Wind 4 kt from variable directions
Visibility: 6000 m
Few clouds at a height of 6600 ft, Cumulonimbus.
Scattered clouds at a height of 13000 ft
Temporary
from 17 at 19 UTC to 18 at 07 UTC
Visibility: 3100 m
mist, smoke
Probability 40% :
Temporary
from 18 at 00 UTC to 18 at 05 UTC
Visibility: 0500 m
fog

TAF: UTDD 171800Z 1719/1807 VRB02MPS 6000 FEW066CB SCT130 TEMPO 1719/1807 3100 BR FU PROB40 TEMPO 1800/1805 0500 FG

Weather observations and forecasts of more than 4000 airports (METAR and TAF reports).

The available stations are represented by yellow and red dots on the map.

Hover mouse over dot to see the name of the station.

Then click to see weather observations and forecasts.

To change the map : click on the green buttons with a black cross to zoom in, on the green button with a dash to zoom out, or on the green arrows for adjacent maps.


METAR-TAF: